Time;durP1;ratioP1;P1;durP2;ratioP2;P2;SDS_P1;SDS_P2;PMS_P1;PMS_P2;Temp;Humidity;BMP_temperature;BMP_pressure;BME280_temperature;BME280_humidity;BME280_pressure;Samples;Min_cycle;Max_cycle;Signal;HPM_P1;HPM_P2
2022/01/16 00:00:48;;;;;;;28.83;14.68;;;;;;;;;;4920441;29;20063;-76
2022/01/16 00:05:58;;;;;;;31.13;14.93;;;;;;;;;;4918900;29;20401;-75
2022/01/16 00:08:23;;;;;;;33.67;15.10;;;;;;;;;;4919901;29;20111;-75
2022/01/16 00:10:49;;;;;;;26.15;13.40;;;;;;;;;;4922826;29;20106;-76
2022/01/16 00:13:14;;;;;;;28.30;13.68;;;;;;;;;;4924151;29;20035;-76
2022/01/16 00:15:41;;;;;;;31.75;14.30;;;;;;;;;;4925160;29;20054;-76
2022/01/16 00:18:16;;;;;;;27.83;13.60;;;;;;;;;;4900419;29;20027;-75
2022/01/16 00:20:41;;;;;;;31.10;15.38;;;;;;;;;;4924119;29;20028;-75
2022/01/16 00:23:09;;;;;;;25.63;14.30;;;;;;;;;;4925778;29;20083;-76
2022/01/16 00:25:34;;;;;;;27.27;13.90;;;;;;;;;;4926472;29;20032;-76
2022/01/16 00:28:00;;;;;;;31.80;14.77;;;;;;;;;;4926871;29;20475;-77
2022/01/16 00:30:25;;;;;;;28.33;14.05;;;;;;;;;;4910339;29;20120;-75
2022/01/16 00:32:50;;;;;;;28.77;12.88;;;;;;;;;;4925701;29;20020;-76
2022/01/16 00:35:16;;;;;;;27.92;13.90;;;;;;;;;;4926201;29;20020;-76
2022/01/16 00:37:41;;;;;;;34.13;16.25;;;;;;;;;;4923530;29;20103;-76
2022/01/16 00:40:08;;;;;;;25.50;13.73;;;;;;;;;;4923810;29;20063;-76
2022/01/16 00:42:33;;;;;;;28.27;14.85;;;;;;;;;;4921693;29;20028;-76
2022/01/16 00:44:58;;;;;;;30.58;13.82;;;;;;;;;;4922160;29;20038;-76
2022/01/16 00:47:23;;;;;;;27.33;14.13;;;;;;;;;;4922733;29;20032;-76
2022/01/16 00:49:48;;;;;;;25.52;13.32;;;;;;;;;;4922093;29;20055;-76
2022/01/16 00:52:14;;;;;;;33.47;14.23;;;;;;;;;;4920949;29;20020;-77
2022/01/16 00:54:39;;;;;;;32.03;14.43;;;;;;;;;;4921175;29;20024;-77
2022/01/16 00:57:04;;;;;;;26.95;13.95;;;;;;;;;;4921501;29;20032;-76
2022/01/16 00:59:29;;;;;;;31.17;13.15;;;;;;;;;;4922485;29;20024;-76
2022/01/16 01:01:55;;;;;;;30.90;14.55;;;;;;;;;;4921927;29;20084;-76
2022/01/16 01:04:20;;;;;;;29.58;12.45;;;;;;;;;;4905239;29;20035;-76
2022/01/16 01:06:48;;;;;;;27.58;12.73;;;;;;;;;;4921032;29;20024;-76
2022/01/16 01:09:14;;;;;;;29.95;13.15;;;;;;;;;;4921048;29;20028;-76
2022/01/16 01:11:41;;;;;;;27.52;12.57;;;;;;;;;;4921237;29;20107;-76
2022/01/16 01:16:50;;;;;;;32.67;13.63;;;;;;;;;;4921352;29;20059;-76
2022/01/16 01:19:15;;;;;;;30.27;12.83;;;;;;;;;;4914906;29;20060;-76
2022/01/16 01:21:40;;;;;;;28.17;13.57;;;;;;;;;;4919133;29;20028;-76
2022/01/16 01:24:06;;;;;;;33.15;12.88;;;;;;;;;;4920503;29;20034;-76
2022/01/16 01:26:36;;;;;;;25.67;12.63;;;;;;;;;;4920447;29;20032;-76
2022/01/16 01:29:02;;;;;;;35.47;13.18;;;;;;;;;;4919765;29;20051;-76
2022/01/16 01:31:29;;;;;;;33.50;12.47;;;;;;;;;;4919333;29;20024;-76
2022/01/16 01:33:54;;;;;;;28.08;12.77;;;;;;;;;;4918921;29;20134;-76
2022/01/16 01:36:20;;;;;;;25.50;12.57;;;;;;;;;;4919897;29;20301;-75
2022/01/16 01:38:45;;;;;;;28.87;11.90;;;;;;;;;;4919329;29;20043;-76
2022/01/16 01:41:10;;;;;;;26.33;11.70;;;;;;;;;;4918750;29;20645;-75
2022/01/16 01:51:36;;;;;;;27.08;11.35;;;;;;;;;;4920042;29;20039;-77
2022/01/16 01:54:02;;;;;;;26.73;11.32;;;;;;;;;;4919345;29;20064;-76
2022/01/16 01:56:28;;;;;;;21.87;11.43;;;;;;;;;;4901362;29;20055;-75
2022/01/16 01:58:57;;;;;;;28.43;11.93;;;;;;;;;;4917895;29;20138;-76
2022/01/16 02:01:23;;;;;;;26.33;11.83;;;;;;;;;;4900762;29;20438;-76
2022/01/16 02:03:48;;;;;;;27.70;11.52;;;;;;;;;;4917691;29;20028;-76
2022/01/16 02:06:15;;;;;;;29.17;12.10;;;;;;;;;;4907574;29;20032;-77
2022/01/16 02:08:41;;;;;;;24.17;10.93;;;;;;;;;;4917453;29;20050;-76
2022/01/16 02:11:06;;;;;;;24.47;11.33;;;;;;;;;;4900811;29;20574;-75
2022/01/16 02:13:43;;;;;;;20.80;10.27;;;;;;;;;;4917628;29;20107;-76
2022/01/16 02:32:45;;;;;;;30.03;12.07;;;;;;;;;;4884428;29;20060;-76
2022/01/16 02:35:09;;;;;;;21.70;10.57;;;;;;;;;;4909830;29;20520;-76
2022/01/16 02:37:34;;;;;;;18.90;9.73;;;;;;;;;;4916513;29;20039;-76
2022/01/16 02:40:07;;;;;;;22.70;10.07;;;;;;;;;;4916582;29;20035;-76
2022/01/16 02:42:38;;;;;;;25.97;11.57;;;;;;;;;;4916695;29;20032;-75
2022/01/16 02:45:05;;;;;;;28.27;12.73;;;;;;;;;;4916970;29;20024;-76
2022/01/16 02:47:31;;;;;;;25.80;11.17;;;;;;;;;;4899582;29;20418;-76
2022/01/16 02:49:59;;;;;;;22.63;10.90;;;;;;;;;;4916604;29;20036;-76
2022/01/16 02:52:27;;;;;;;24.50;11.13;;;;;;;;;;4916651;29;20466;-76
2022/01/16 02:54:55;;;;;;;20.10;9.87;;;;;;;;;;4915616;29;20035;-76
2022/01/16 02:57:20;;;;;;;22.57;10.37;;;;;;;;;;4916332;29;20067;-76
2022/01/16 02:59:48;;;;;;;23.10;10.43;;;;;;;;;;4916219;29;20055;-75
2022/01/16 03:02:13;;;;;;;25.10;11.10;;;;;;;;;;4916216;29;20020;-76
2022/01/16 03:04:38;;;;;;;22.20;10.97;;;;;;;;;;4915980;29;20095;-76
2022/01/16 03:07:04;;;;;;;23.90;10.60;;;;;;;;;;4899096;29;20055;-76
2022/01/16 03:09:41;;;;;;;23.37;11.83;;;;;;;;;;4916873;29;20024;-76
2022/01/16 03:12:09;;;;;;;23.40;10.43;;;;;;;;;;4899372;29;20020;-75
2022/01/16 03:14:34;;;;;;;23.27;11.13;;;;;;;;;;4916592;29;20251;-76
2022/01/16 03:17:00;;;;;;;30.73;11.43;;;;;;;;;;4916388;29;20508;-75
2022/01/16 03:22:09;;;;;;;22.63;10.57;;;;;;;;;;4910212;29;20432;-76
2022/01/16 03:24:39;;;;;;;25.50;11.10;;;;;;;;;;4916628;29;20106;-76
2022/01/16 03:27:08;;;;;;;23.73;10.73;;;;;;;;;;4908730;29;20051;-75
2022/01/16 03:29:33;;;;;;;21.87;10.37;;;;;;;;;;4916237;29;20034;-76
2022/01/16 03:31:59;;;;;;;21.83;10.37;;;;;;;;;;4915850;29;20036;-76
2022/01/16 03:34:25;;;;;;;22.70;11.10;;;;;;;;;;4916584;29;20125;-76
2022/01/16 03:36:50;;;;;;;24.50;10.90;;;;;;;;;;4914480;29;20401;-75
2022/01/16 03:39:15;;;;;;;24.17;11.03;;;;;;;;;;4916267;29;20034;-76
2022/01/16 03:41:41;;;;;;;23.97;9.90;;;;;;;;;;4916077;29;20035;-76
2022/01/16 03:44:06;;;;;;;25.23;10.13;;;;;;;;;;4899143;29;20059;-76
2022/01/16 03:46:36;;;;;;;23.10;10.70;;;;;;;;;;4906494;29;20477;-76
2022/01/16 03:49:05;;;;;;;25.37;11.23;;;;;;;;;;4915798;29;20028;-76
2022/01/16 03:51:31;;;;;;;22.27;9.40;;;;;;;;;;4916353;29;20059;-75
2022/01/16 03:53:56;;;;;;;21.57;10.57;;;;;;;;;;4916147;29;20051;-74
2022/01/16 03:56:21;;;;;;;23.30;10.83;;;;;;;;;;4900269;29;20048;-77
2022/01/16 03:58:46;;;;;;;22.97;11.20;;;;;;;;;;4917488;29;20050;-76
2022/01/16 04:01:11;;;;;;;24.40;10.63;;;;;;;;;;4918004;29;20028;-76
2022/01/16 04:03:37;;;;;;;24.33;11.13;;;;;;;;;;4916940;29;20036;-75
2022/01/16 04:06:02;;;;;;;23.10;10.87;;;;;;;;;;4900611;29;20497;-76
2022/01/16 04:08:27;;;;;;;25.83;10.83;;;;;;;;;;4900221;29;20075;-76
2022/01/16 04:10:53;;;;;;;27.60;12.23;;;;;;;;;;4916154;29;20028;-76
2022/01/16 04:13:20;;;;;;;19.13;9.27;;;;;;;;;;4916313;29;20024;-76
2022/01/16 04:15:45;;;;;;;23.63;10.40;;;;;;;;;;4916526;29;20553;-76
2022/01/16 04:18:10;;;;;;;20.43;10.60;;;;;;;;;;4915983;29;20207;-76
2022/01/16 04:20:35;;;;;;;22.40;9.90;;;;;;;;;;4916044;29;20023;-76
2022/01/16 04:23:05;;;;;;;23.37;10.53;;;;;;;;;;4899106;29;20092;-75
2022/01/16 04:25:30;;;;;;;22.60;9.90;;;;;;;;;;4916073;29;20111;-75
2022/01/16 04:27:56;;;;;;;29.47;11.63;;;;;;;;;;4915920;29;20143;-76
2022/01/16 04:30:22;;;;;;;26.63;10.93;;;;;;;;;;4917087;29;20363;-76
2022/01/16 04:32:47;;;;;;;20.90;9.77;;;;;;;;;;4917833;29;20051;-76
2022/01/16 04:35:12;;;;;;;28.00;11.17;;;;;;;;;;4916743;29;20024;-76
2022/01/16 04:37:38;;;;;;;22.80;10.87;;;;;;;;;;4915578;29;20059;-77
2022/01/16 04:40:04;;;;;;;24.10;10.63;;;;;;;;;;4899179;29;20032;-77
2022/01/16 04:45:14;;;;;;;23.53;9.73;;;;;;;;;;4910928;29;20082;-76
2022/01/16 04:47:40;;;;;;;28.07;11.93;;;;;;;;;;4918013;29;20036;-76
2022/01/16 04:50:06;;;;;;;22.47;10.33;;;;;;;;;;4920454;29;20068;-76
2022/01/16 04:52:31;;;;;;;22.63;10.20;;;;;;;;;;4903502;29;20397;-76
2022/01/16 04:54:56;;;;;;;22.67;11.00;;;;;;;;;;4922917;29;20024;-76
2022/01/16 04:57:21;;;;;;;23.40;10.67;;;;;;;;;;4928410;29;20055;-76
2022/01/16 04:59:46;;;;;;;22.13;10.13;;;;;;;;;;4928656;29;20039;-76
2022/01/16 05:02:11;;;;;;;23.90;11.07;;;;;;;;;;4926741;29;20131;-76
2022/01/16 05:04:38;;;;;;;27.80;11.23;;;;;;;;;;4924073;29;20032;-76
2022/01/16 05:07:03;;;;;;;25.97;10.17;;;;;;;;;;4924268;29;20032;-76
2022/01/16 05:09:28;;;;;;;27.57;11.97;;;;;;;;;;4923768;29;20027;-76
2022/01/16 05:11:57;;;;;;;25.63;11.67;;;;;;;;;;4922688;29;20544;-77
2022/01/16 05:17:06;;;;;;;20.47;10.10;;;;;;;;;;4914331;29;20142;-77
2022/01/16 05:19:31;;;;;;;25.03;11.63;;;;;;;;;;4903210;29;20530;-77
2022/01/16 05:21:56;;;;;;;25.60;11.93;;;;;;;;;;4928902;29;20035;-76
2022/01/16 05:24:24;;;;;;;24.17;11.13;;;;;;;;;;4936697;29;20061;-77
2022/01/16 05:26:49;;;;;;;28.67;10.57;;;;;;;;;;4931600;29;20028;-76
2022/01/16 05:29:14;;;;;;;26.80;11.43;;;;;;;;;;4921626;29;20053;-76
2022/01/16 05:31:47;;;;;;;23.10;11.13;;;;;;;;;;4925094;29;20024;-76
2022/01/16 05:34:13;;;;;;;21.63;11.27;;;;;;;;;;4917009;29;20024;-76
2022/01/16 05:36:38;;;;;;;25.53;11.67;;;;;;;;;;4923027;29;20055;-76
2022/01/16 05:39:04;;;;;;;23.83;10.97;;;;;;;;;;4904803;29;20119;-76
2022/01/16 05:41:29;;;;;;;20.73;10.20;;;;;;;;;;4922573;29;20087;-76
2022/01/16 05:43:54;;;;;;;25.23;11.37;;;;;;;;;;4921284;29;20031;-76
2022/01/16 05:46:19;;;;;;;25.27;10.17;;;;;;;;;;4902495;29;20060;-76
2022/01/16 05:48:44;;;;;;;23.73;11.23;;;;;;;;;;4919632;29;20028;-76
2022/01/16 05:51:10;;;;;;;23.17;10.67;;;;;;;;;;4918621;29;20530;-76
2022/01/16 05:53:36;;;;;;;24.80;11.70;;;;;;;;;;4917176;29;20111;-76
2022/01/16 05:56:01;;;;;;;24.33;10.50;;;;;;;;;;4918839;29;20028;-77
2022/01/16 05:58:26;;;;;;;24.07;10.27;;;;;;;;;;4919571;29;20020;-76
2022/01/16 06:00:51;;;;;;;24.90;11.63;;;;;;;;;;4919859;29;20024;-77
2022/01/16 06:03:16;;;;;;;28.87;11.70;;;;;;;;;;4919325;29;20063;-76
2022/01/16 06:05:42;;;;;;;27.00;11.93;;;;;;;;;;4918401;29;20047;-76
2022/01/16 06:08:12;;;;;;;26.13;11.60;;;;;;;;;;4901502;29;20028;-76
2022/01/16 06:10:38;;;;;;;24.83;11.53;;;;;;;;;;4901058;29;20028;-76
2022/01/16 06:13:04;;;;;;;26.70;13.23;;;;;;;;;;4910904;29;20025;-76
2022/01/16 06:15:29;;;;;;;31.00;12.87;;;;;;;;;;4901490;29;20103;-76
2022/01/16 06:17:54;;;;;;;28.67;11.90;;;;;;;;;;4917583;29;20176;-75
2022/01/16 06:20:20;;;;;;;31.33;12.73;;;;;;;;;;4917697;29;20066;-76
2022/01/16 06:22:45;;;;;;;29.00;12.77;;;;;;;;;;4899952;29;20020;-76
2022/01/16 06:25:11;;;;;;;28.97;12.60;;;;;;;;;;4917627;29;20528;-76
2022/01/16 06:27:36;;;;;;;29.67;12.47;;;;;;;;;;4917096;29;20028;-76
2022/01/16 06:30:03;;;;;;;30.30;13.63;;;;;;;;;;4917525;29;20020;-76
2022/01/16 06:32:29;;;;;;;29.53;11.83;;;;;;;;;;4904109;29;20096;-76
2022/01/16 06:34:54;;;;;;;33.13;14.00;;;;;;;;;;4900727;29;20484;-76
2022/01/16 06:37:19;;;;;;;29.77;12.63;;;;;;;;;;4917172;29;20556;-76
2022/01/16 06:39:44;;;;;;;29.53;12.43;;;;;;;;;;4917331;29;20087;-76
2022/01/16 06:42:09;;;;;;;27.73;12.93;;;;;;;;;;4917554;29;20107;-76
2022/01/16 06:44:35;;;;;;;28.67;12.50;;;;;;;;;;4918016;29;20103;-75
2022/01/16 06:47:00;;;;;;;22.73;11.57;;;;;;;;;;4917461;29;20024;-76
2022/01/16 06:49:25;;;;;;;26.63;12.70;;;;;;;;;;4916812;29;20035;-76
2022/01/16 06:51:51;;;;;;;27.37;11.93;;;;;;;;;;4916195;29;20470;-76
2022/01/16 06:54:17;;;;;;;25.37;11.30;;;;;;;;;;4916843;29;20502;-76
2022/01/16 06:56:42;;;;;;;28.47;11.50;;;;;;;;;;4916314;29;20056;-76
2022/01/16 06:59:07;;;;;;;23.87;12.23;;;;;;;;;;4916381;29;20028;-76
2022/01/16 07:01:32;;;;;;;22.00;9.97;;;;;;;;;;4916572;29;20037;-75
2022/01/16 07:03:57;;;;;;;22.83;10.53;;;;;;;;;;4917479;29;20071;-76
2022/01/16 07:06:23;;;;;;;19.47;9.67;;;;;;;;;;4916917;29;20040;-76
2022/01/16 07:08:48;;;;;;;24.20;10.77;;;;;;;;;;4916508;29;20034;-76
2022/01/16 07:11:13;;;;;;;25.10;11.70;;;;;;;;;;4916429;29;20501;-76
2022/01/16 07:13:38;;;;;;;24.43;10.57;;;;;;;;;;4916596;29;20048;-76
2022/01/16 07:16:04;;;;;;;19.97;9.23;;;;;;;;;;4916349;29;20049;-76
2022/01/16 07:18:29;;;;;;;18.37;9.27;;;;;;;;;;4915971;29;20031;-76
2022/01/16 07:20:55;;;;;;;20.90;9.10;;;;;;;;;;4915585;29;20034;-76
2022/01/16 07:23:20;;;;;;;24.20;10.30;;;;;;;;;;4915873;29;20051;-76
2022/01/16 07:25:46;;;;;;;17.20;8.37;;;;;;;;;;4898812;29;20064;-76
2022/01/16 07:28:11;;;;;;;20.00;8.50;;;;;;;;;;4916054;29;20024;-76
2022/01/16 07:30:37;;;;;;;15.37;7.43;;;;;;;;;;4916472;29;20051;-76
2022/01/16 07:33:02;;;;;;;20.47;9.40;;;;;;;;;;4916606;29;20028;-76
2022/01/16 07:35:27;;;;;;;19.73;8.93;;;;;;;;;;4923509;29;20071;-77
2022/01/16 07:37:53;;;;;;;20.10;8.80;;;;;;;;;;4923547;29;20072;-76
2022/01/16 07:40:20;;;;;;;18.33;8.37;;;;;;;;;;4924931;29;20039;-76
2022/01/16 07:42:45;;;;;;;16.93;7.63;;;;;;;;;;4922915;29;20055;-77
2022/01/16 07:45:11;;;;;;;19.03;7.90;;;;;;;;;;4924800;29;20028;-75
2022/01/16 07:47:36;;;;;;;13.00;6.27;;;;;;;;;;4923070;29;20074;-76
2022/01/16 07:50:02;;;;;;;17.20;7.50;;;;;;;;;;4923611;29;20541;-76
2022/01/16 07:52:27;;;;;;;17.40;7.97;;;;;;;;;;4924230;29;20084;-76
2022/01/16 07:54:52;;;;;;;13.40;7.47;;;;;;;;;;4924468;29;20412;-77
2022/01/16 07:57:17;;;;;;;14.40;6.40;;;;;;;;;;4907476;29;20028;-76
2022/01/16 07:59:43;;;;;;;13.40;6.87;;;;;;;;;;4923994;29;20039;-76
2022/01/16 08:02:08;;;;;;;13.37;5.93;;;;;;;;;;4921649;29;20394;-76
2022/01/16 08:04:34;;;;;;;10.83;5.73;;;;;;;;;;4920862;29;20024;-76
2022/01/16 08:06:59;;;;;;;14.37;6.03;;;;;;;;;;4922540;29;20074;-76
2022/01/16 08:09:24;;;;;;;21.60;7.77;;;;;;;;;;4922139;29;20027;-77
2022/01/16 08:11:49;;;;;;;15.33;6.40;;;;;;;;;;4901830;29;20028;-76
2022/01/16 08:14:14;;;;;;;17.70;6.70;;;;;;;;;;4917779;29;20032;-76
2022/01/16 08:16:40;;;;;;;13.73;6.43;;;;;;;;;;4916611;29;20033;-77
2022/01/16 08:19:05;;;;;;;13.90;7.03;;;;;;;;;;4916530;29;20028;-77
2022/01/16 08:21:30;;;;;;;14.53;7.27;;;;;;;;;;4915979;29;20063;-77
2022/01/16 08:23:55;;;;;;;15.43;8.13;;;;;;;;;;4898813;29;20470;-76
2022/01/16 08:26:21;;;;;;;15.60;7.87;;;;;;;;;;4915920;29;20032;-76
2022/01/16 08:28:46;;;;;;;20.30;9.53;;;;;;;;;;4915590;29;20036;-76
2022/01/16 08:31:11;;;;;;;13.80;7.00;;;;;;;;;;4898914;29;20095;-77
2022/01/16 08:33:36;;;;;;;16.60;8.50;;;;;;;;;;4919292;29;20026;-77
2022/01/16 08:36:02;;;;;;;17.57;9.30;;;;;;;;;;4919356;29;20513;-77
2022/01/16 08:38:27;;;;;;;18.57;9.77;;;;;;;;;;4919258;29;20501;-76
2022/01/16 08:40:53;;;;;;;17.17;8.97;;;;;;;;;;4901953;29;20035;-76
2022/01/16 08:43:18;;;;;;;24.37;11.40;;;;;;;;;;4918843;29;20024;-76
2022/01/16 08:45:43;;;;;;;21.63;10.57;;;;;;;;;;4902791;29;20032;-76
2022/01/16 08:48:09;;;;;;;19.87;10.17;;;;;;;;;;4919463;29;20023;-76
2022/01/16 08:50:35;;;;;;;21.83;9.83;;;;;;;;;;4920473;29;20619;-76
2022/01/16 08:53:00;;;;;;;21.90;10.60;;;;;;;;;;4919857;29;20103;-76
2022/01/16 08:55:25;;;;;;;19.90;9.53;;;;;;;;;;4919712;29;20083;-76
2022/01/16 08:57:51;;;;;;;20.70;9.73;;;;;;;;;;4918439;29;20020;-76
2022/01/16 09:00:16;;;;;;;21.03;10.20;;;;;;;;;;4919991;29;20040;-77
2022/01/16 09:02:41;;;;;;;26.57;10.07;;;;;;;;;;4901447;29;20505;-76
2022/01/16 09:05:07;;;;;;;21.58;9.60;;;;;;;;;;4919060;29;20545;-77
2022/01/16 09:07:32;;;;;;;16.97;8.40;;;;;;;;;;4901955;29;20059;-77
2022/01/16 09:09:59;;;;;;;20.00;9.60;;;;;;;;;;4919648;29;20485;-77
2022/01/16 09:12:24;;;;;;;22.70;10.93;;;;;;;;;;4918523;29;20032;-77
2022/01/16 09:14:50;;;;;;;24.40;10.53;;;;;;;;;;4918178;29;20122;-76
2022/01/16 09:17:15;;;;;;;15.17;7.37;;;;;;;;;;4918194;29;20032;-76
2022/01/16 09:19:42;;;;;;;23.43;11.60;;;;;;;;;;4900703;29;20032;-76
2022/01/16 09:22:07;;;;;;;22.63;10.00;;;;;;;;;;4915521;29;20032;-76
2022/01/16 09:24:33;;;;;;;20.63;9.03;;;;;;;;;;4917419;29;20092;-76
2022/01/16 09:26:58;;;;;;;28.55;11.98;;;;;;;;;;4900881;29;20039;-75
2022/01/16 09:29:23;;;;;;;22.87;9.97;;;;;;;;;;4917831;29;20103;-77
2022/01/16 09:31:48;;;;;;;21.73;10.80;;;;;;;;;;4917255;29;20024;-77
2022/01/16 09:34:13;;;;;;;15.53;8.37;;;;;;;;;;4917921;29;20516;-76
2022/01/16 09:36:40;;;;;;;19.00;9.70;;;;;;;;;;4900484;29;20028;-77
2022/01/16 09:39:05;;;;;;;19.13;9.55;;;;;;;;;;4917695;29;20477;-77
2022/01/16 09:41:30;;;;;;;16.23;9.00;;;;;;;;;;4918160;29;20111;-77
2022/01/16 09:43:56;;;;;;;21.45;10.05;;;;;;;;;;4916480;29;20115;-77
2022/01/16 09:46:21;;;;;;;19.57;8.70;;;;;;;;;;4900444;29;20024;-76
2022/01/16 09:48:46;;;;;;;19.23;8.93;;;;;;;;;;4917178;29;20135;-77
2022/01/16 09:51:11;;;;;;;18.53;8.67;;;;;;;;;;4917631;29;20509;-76
2022/01/16 09:53:40;;;;;;;22.50;9.33;;;;;;;;;;4917977;29;20047;-76
2022/01/16 09:56:06;;;;;;;18.42;8.27;;;;;;;;;;4910727;29;20172;-76
2022/01/16 09:58:31;;;;;;;19.03;9.73;;;;;;;;;;4917589;29;20028;-76
2022/01/16 10:00:56;;;;;;;16.42;8.65;;;;;;;;;;4917943;29;20035;-76
2022/01/16 10:03:38;;;;;;;22.85;10.90;;;;;;;;;;4900310;29;20091;-76
2022/01/16 10:06:14;;;;;;;17.90;8.48;;;;;;;;;;4917672;29;20032;-76
2022/01/16 10:08:40;;;;;;;21.38;8.85;;;;;;;;;;4916650;29;20028;-76
2022/01/16 10:11:20;;;;;;;23.10;9.00;;;;;;;;;;4916961;29;20031;-75
2022/01/16 10:13:57;;;;;;;18.75;10.02;;;;;;;;;;4899852;29;20032;-76
2022/01/16 10:16:30;;;;;;;21.73;9.43;;;;;;;;;;4916885;29;20031;-76
2022/01/16 10:18:55;;;;;;;20.65;9.88;;;;;;;;;;4916437;29;20035;-76
2022/01/16 10:21:30;;;;;;;21.58;10.05;;;;;;;;;;4915482;29;20016;-75
2022/01/16 10:23:56;;;;;;;23.92;10.10;;;;;;;;;;4916854;29;20103;-75
2022/01/16 10:26:22;;;;;;;19.20;9.35;;;;;;;;;;4916546;29;20104;-75
2022/01/16 10:28:48;;;;;;;23.67;9.75;;;;;;;;;;4916437;29;20341;-75
2022/01/16 10:31:18;;;;;;;19.65;9.35;;;;;;;;;;4916721;29;20545;-75
2022/01/16 10:33:43;;;;;;;22.63;10.18;;;;;;;;;;4899754;29;20031;-76
2022/01/16 10:36:08;;;;;;;27.05;10.68;;;;;;;;;;4916757;29;20020;-75
2022/01/16 10:38:33;;;;;;;22.88;10.75;;;;;;;;;;4916482;29;20024;-75
2022/01/16 10:40:59;;;;;;;17.33;7.32;;;;;;;;;;4899356;29;20035;-75
2022/01/16 10:43:44;;;;;;;28.80;11.45;;;;;;;;;;4916122;29;20119;-75
2022/01/16 10:46:11;;;;;;;31.52;12.50;;;;;;;;;;4916364;29;20112;-75
2022/01/16 10:48:36;;;;;;;26.63;13.27;;;;;;;;;;4899176;29;20028;-76
2022/01/16 10:51:02;;;;;;;28.77;11.90;;;;;;;;;;4916402;29;20024;-76
2022/01/16 10:53:28;;;;;;;28.88;13.20;;;;;;;;;;4916213;29;20024;-76
2022/01/16 10:56:12;;;;;;;26.65;12.25;;;;;;;;;;4915328;29;20719;-76
2022/01/16 10:58:45;;;;;;;24.45;12.40;;;;;;;;;;4915849;29;20028;-76
2022/01/16 11:01:13;;;;;;;30.20;13.32;;;;;;;;;;4899538;29;20099;-76
2022/01/16 11:03:46;;;;;;;27.42;11.88;;;;;;;;;;4916155;29;20088;-76
2022/01/16 11:06:12;;;;;;;30.40;12.20;;;;;;;;;;4910375;29;20032;-75
2022/01/16 11:08:38;;;;;;;33.55;14.75;;;;;;;;;;4915956;29;20028;-75
2022/01/16 11:11:03;;;;;;;26.85;13.40;;;;;;;;;;4915958;29;20035;-75
2022/01/16 11:13:30;;;;;;;26.70;12.82;;;;;;;;;;4899628;29;20410;-75
2022/01/16 11:15:58;;;;;;;26.70;11.65;;;;;;;;;;4916110;29;20151;-75
2022/01/16 11:18:24;;;;;;;21.92;10.88;;;;;;;;;;4899215;29;20370;-76
2022/01/16 11:21:42;;;;;;;25.00;11.57;;;;;;;;;;4915764;29;20039;-75
2022/01/16 11:26:26;;;;;;;21.80;11.25;;;;;;;;;;4880336;29;20126;-75
2022/01/16 11:28:51;;;;;;;25.13;11.88;;;;;;;;;;4915414;29;20537;-75
2022/01/16 11:31:17;;;;;;;24.10;12.15;;;;;;;;;;4915576;29;20028;-75
2022/01/16 11:33:42;;;;;;;23.42;11.18;;;;;;;;;;4915202;29;20489;-76
2022/01/16 11:36:09;;;;;;;23.33;11.63;;;;;;;;;;4915566;29;20020;-75
2022/01/16 11:38:36;;;;;;;20.92;8.68;;;;;;;;;;4915333;29;20024;-75
2022/01/16 11:41:11;;;;;;;26.13;11.98;;;;;;;;;;4898469;29;20482;-75
2022/01/16 11:43:36;;;;;;;21.33;10.57;;;;;;;;;;4915243;29;20051;-75
2022/01/16 11:51:06;;;;;;;26.90;12.68;;;;;;;;;;4954404;23;20047;-77
2022/01/16 11:53:50;;;;;;;25.73;12.70;;;;;;;;;;4916624;29;20046;-76
2022/01/16 11:56:45;;;;;;;23.30;11.00;;;;;;;;;;4930845;29;20074;-76
2022/01/16 11:59:10;;;;;;;24.15;11.77;;;;;;;;;;4915593;29;20031;-76
2022/01/16 12:01:55;;;;;;;24.52;12.18;;;;;;;;;;4934867;29;20461;-77
2022/01/16 12:04:29;;;;;;;24.98;11.80;;;;;;;;;;4932751;29;20046;-75
2022/01/16 12:06:58;;;;;;;21.00;9.57;;;;;;;;;;4936656;29;20032;-77
2022/01/16 12:09:36;;;;;;;25.73;11.32;;;;;;;;;;4938417;29;20027;-77
2022/01/16 12:12:02;;;;;;;25.08;11.73;;;;;;;;;;4938376;29;20028;-77
2022/01/16 12:14:46;;;;;;;23.30;11.10;;;;;;;;;;4939035;29;20119;-76
2022/01/16 12:17:32;;;;;;;20.45;9.50;;;;;;;;;;4935462;29;20040;-77
2022/01/16 12:19:58;;;;;;;25.27;10.93;;;;;;;;;;4938163;29;20047;-78
2022/01/16 12:22:56;;;;;;;26.42;10.93;;;;;;;;;;4938685;29;20036;-78
2022/01/16 12:25:23;;;;;;;26.08;11.43;;;;;;;;;;4905364;29;20039;-78
2022/01/16 12:27:53;;;;;;;19.20;10.05;;;;;;;;;;4938989;29;20028;-78
2022/01/16 12:30:24;;;;;;;24.25;11.00;;;;;;;;;;4944034;29;20066;-78
2022/01/16 12:32:50;;;;;;;22.27;9.98;;;;;;;;;;4944340;29;20019;-79
2022/01/16 12:35:35;;;;;;;23.48;11.10;;;;;;;;;;4942480;29;20482;-77
2022/01/16 12:38:04;;;;;;;22.67;10.35;;;;;;;;;;4926207;29;20059;-78
2022/01/16 12:40:30;;;;;;;22.80;11.30;;;;;;;;;;4942301;29;20034;-77
2022/01/16 12:42:55;;;;;;;22.60;10.75;;;;;;;;;;4943352;29;20059;-77
2022/01/16 12:45:20;;;;;;;20.52;9.93;;;;;;;;;;4943814;29;20027;-77
2022/01/16 12:47:47;;;;;;;23.27;10.40;;;;;;;;;;4941975;29;20395;-76
2022/01/16 12:50:13;;;;;;;22.67;9.65;;;;;;;;;;4922097;29;20118;-76
2022/01/16 12:52:45;;;;;;;21.75;9.98;;;;;;;;;;4916938;29;20060;-78
2022/01/16 12:55:11;;;;;;;21.73;9.65;;;;;;;;;;4939327;29;20026;-77
2022/01/16 12:57:36;;;;;;;20.95;9.77;;;;;;;;;;4938218;29;20091;-77
2022/01/16 13:00:11;;;;;;;25.00;9.82;;;;;;;;;;4921583;29;20407;-78
2022/01/16 13:02:37;;;;;;;20.05;9.32;;;;;;;;;;4939012;29;20035;-77
2022/01/16 13:05:02;;;;;;;21.13;10.50;;;;;;;;;;4933439;29;20115;-78
2022/01/16 13:07:27;;;;;;;18.60;9.60;;;;;;;;;;4921038;29;20031;-78
2022/01/16 13:09:52;;;;;;;22.38;9.38;;;;;;;;;;4938697;29;20087;-78
2022/01/16 13:12:18;;;;;;;21.60;10.98;;;;;;;;;;4939501;29;20507;-77
2022/01/16 13:14:43;;;;;;;20.92;9.35;;;;;;;;;;4922465;29;20031;-77
2022/01/16 13:17:10;;;;;;;19.90;10.00;;;;;;;;;;4920839;29;20079;-78
2022/01/16 13:19:49;;;;;;;20.60;9.68;;;;;;;;;;4921524;29;20078;-77
2022/01/16 13:22:16;;;;;;;23.38;9.60;;;;;;;;;;4914822;29;20028;-76
2022/01/16 13:24:41;;;;;;;22.58;9.40;;;;;;;;;;4937209;29;20082;-78
2022/01/16 13:27:08;;;;;;;18.95;8.88;;;;;;;;;;4920469;29;20031;-77
2022/01/16 13:29:37;;;;;;;22.23;9.07;;;;;;;;;;4937205;29;20030;-78
2022/01/16 13:32:03;;;;;;;20.23;9.57;;;;;;;;;;4928592;29;20020;-77
2022/01/16 13:34:39;;;;;;;19.88;8.25;;;;;;;;;;4937224;29;20028;-79
2022/01/16 13:37:06;;;;;;;18.20;7.97;;;;;;;;;;4915601;29;20400;-78
2022/01/16 13:39:32;;;;;;;19.92;9.18;;;;;;;;;;4937028;29;20102;-78
2022/01/16 13:42:18;;;;;;;20.45;9.70;;;;;;;;;;4919615;29;20034;-77
2022/01/16 13:44:44;;;;;;;15.15;7.20;;;;;;;;;;4936778;29;20119;-78
2022/01/16 13:47:14;;;;;;;18.98;8.70;;;;;;;;;;4919071;29;20110;-78
2022/01/16 13:49:44;;;;;;;20.23;8.90;;;;;;;;;;4935937;29;20515;-78
2022/01/16 13:52:09;;;;;;;21.30;8.88;;;;;;;;;;4936344;29;20024;-78
2022/01/16 13:54:34;;;;;;;21.50;8.00;;;;;;;;;;4919653;29;20038;-79
2022/01/16 13:57:02;;;;;;;18.58;7.93;;;;;;;;;;4936385;29;20028;-78
2022/01/16 13:59:28;;;;;;;17.07;6.20;;;;;;;;;;4916667;29;20035;-78
2022/01/16 14:01:54;;;;;;;17.90;7.72;;;;;;;;;;4918620;29;20274;-78
2022/01/16 14:04:19;;;;;;;17.00;7.95;;;;;;;;;;4935464;29;20209;-78
2022/01/16 14:06:51;;;;;;;17.90;8.05;;;;;;;;;;4935927;29;20099;-79
2022/01/16 14:09:17;;;;;;;20.95;8.18;;;;;;;;;;4918759;29;20027;-77
2022/01/16 14:11:44;;;;;;;16.45;8.32;;;;;;;;;;4935716;29;20056;-77
2022/01/16 14:14:10;;;;;;;17.58;8.95;;;;;;;;;;4937270;29;20031;-76
2022/01/16 14:19:19;;;;;;;23.00;7.85;;;;;;;;;;4931591;29;20115;-76
2022/01/16 14:22:03;;;;;;;20.17;8.80;;;;;;;;;;4933585;29;20100;-76
2022/01/16 14:24:28;;;;;;;16.63;8.38;;;;;;;;;;4934368;29;20048;-75
2022/01/16 14:26:58;;;;;;;19.48;7.97;;;;;;;;;;4933806;29;20062;-76
2022/01/16 14:29:23;;;;;;;19.08;8.70;;;;;;;;;;4934154;29;20038;-76
2022/01/16 14:31:50;;;;;;;13.93;7.65;;;;;;;;;;4918073;29;20032;-75
2022/01/16 14:34:17;;;;;;;16.55;8.18;;;;;;;;;;4935892;29;20082;-75
2022/01/16 14:36:42;;;;;;;15.40;7.88;;;;;;;;;;4918580;29;20059;-74
2022/01/16 14:39:08;;;;;;;16.55;7.82;;;;;;;;;;4936162;29;20032;-76
2022/01/16 14:41:36;;;;;;;15.25;6.82;;;;;;;;;;4936222;29;20115;-75
2022/01/16 14:44:02;;;;;;;16.70;7.82;;;;;;;;;;4934713;29;20026;-76
2022/01/16 14:46:29;;;;;;;17.58;7.47;;;;;;;;;;4916859;29;20028;-76
2022/01/16 14:48:54;;;;;;;15.90;8.15;;;;;;;;;;4932906;29;20584;-75
2022/01/16 14:51:20;;;;;;;17.75;8.38;;;;;;;;;;4933632;29;20123;-75
2022/01/16 14:53:45;;;;;;;18.40;8.40;;;;;;;;;;4933545;29;20024;-75
2022/01/16 14:56:11;;;;;;;16.80;7.47;;;;;;;;;;4933975;29;20028;-76
2022/01/16 14:58:45;;;;;;;16.95;7.22;;;;;;;;;;4933096;29;20039;-75
2022/01/16 15:01:12;;;;;;;16.67;8.40;;;;;;;;;;4930576;29;20032;-75
2022/01/16 15:03:38;;;;;;;17.75;8.40;;;;;;;;;;4935051;29;20032;-76
2022/01/16 15:06:07;;;;;;;18.25;8.70;;;;;;;;;;4935395;29;20042;-76
2022/01/16 15:08:39;;;;;;;20.95;10.38;;;;;;;;;;4935296;29;20036;-75